sensor_id;sensor_type;location;lat;lon;timestamp;pressure;altitude;pressure_sealevel;temperature;humidity
13387;BME280;6763;48.524;9.044;2023-04-19T00:02:21;98253.41;;;16.04;47.32
13387;BME280;6763;48.524;9.044;2023-04-19T00:04:46;98260.38;;;16.04;47.05
13387;BME280;6763;48.524;9.044;2023-04-19T00:07:12;98250.00;;;16.02;47.12
13387;BME280;6763;48.524;9.044;2023-04-19T00:09:38;98249.13;;;16.02;47.19
13387;BME280;6763;48.524;9.044;2023-04-19T00:12:03;98250.88;;;16.01;47.08
13387;BME280;6763;48.524;9.044;2023-04-19T00:14:29;98247.47;;;15.99;47.47
13387;BME280;6763;48.524;9.044;2023-04-19T00:16:54;98245.81;;;15.97;47.37
13387;BME280;6763;48.524;9.044;2023-04-19T00:19:19;98247.50;;;15.98;47.40
13387;BME280;6763;48.524;9.044;2023-04-19T00:21:46;98241.47;;;15.97;47.30
13387;BME280;6763;48.524;9.044;2023-04-19T00:24:12;98244.09;;;15.96;47.39
13387;BME280;6763;48.524;9.044;2023-04-19T00:26:37;98249.31;;;15.96;47.42
13387;BME280;6763;48.524;9.044;2023-04-19T00:29:02;98241.47;;;15.96;47.39
13387;BME280;6763;48.524;9.044;2023-04-19T00:31:28;98240.63;;;15.95;47.28
13387;BME280;6763;48.524;9.044;2023-04-19T00:33:53;98240.75;;;15.92;47.24
13387;BME280;6763;48.524;9.044;2023-04-19T00:36:18;98245.97;;;15.92;47.33
13387;BME280;6763;48.524;9.044;2023-04-19T00:38:44;98237.28;;;15.92;47.53
13387;BME280;6763;48.524;9.044;2023-04-19T00:41:09;98231.25;;;15.90;47.43
13387;BME280;6763;48.524;9.044;2023-04-19T00:43:34;98231.25;;;15.90;47.58
13387;BME280;6763;48.524;9.044;2023-04-19T00:46:00;98229.53;;;15.89;47.30
13387;BME280;6763;48.524;9.044;2023-04-19T00:48:25;98223.47;;;15.88;47.60
13387;BME280;6763;48.524;9.044;2023-04-19T00:50:51;98229.63;;;15.86;47.55
13387;BME280;6763;48.524;9.044;2023-04-19T00:53:16;98219.28;;;15.83;47.69
13387;BME280;6763;48.524;9.044;2023-04-19T00:55:41;98216.75;;;15.81;47.53
13387;BME280;6763;48.524;9.044;2023-04-19T00:58:08;98222.84;;;15.80;47.58
13387;BME280;6763;48.524;9.044;2023-04-19T01:00:34;98222.00;;;15.80;47.81
13387;BME280;6763;48.524;9.044;2023-04-19T01:02:59;98220.31;;;15.79;47.88
13387;BME280;6763;48.524;9.044;2023-04-19T01:05:25;98224.72;;;15.77;47.75
13387;BME280;6763;48.524;9.044;2023-04-19T01:07:50;98221.25;;;15.76;47.77
13387;BME280;6763;48.524;9.044;2023-04-19T01:10:16;98219.50;;;15.77;47.89
13387;BME280;6763;48.524;9.044;2023-04-19T01:12:41;98218.75;;;15.73;47.69
13387;BME280;6763;48.524;9.044;2023-04-19T01:15:07;98217.88;;;15.73;47.56
13387;BME280;6763;48.524;9.044;2023-04-19T01:17:33;98217.00;;;15.74;47.90
13387;BME280;6763;48.524;9.044;2023-04-19T01:20:03;98219.59;;;15.74;47.53
13387;BME280;6763;48.524;9.044;2023-04-19T01:22:30;98210.06;;;15.73;47.81
13387;BME280;6763;48.524;9.044;2023-04-19T01:24:56;98212.72;;;15.71;47.70
13387;BME280;6763;48.524;9.044;2023-04-19T01:27:22;98211.00;;;15.70;47.79
13387;BME280;6763;48.524;9.044;2023-04-19T01:29:48;98204.94;;;15.70;47.79
13387;BME280;6763;48.524;9.044;2023-04-19T01:32:13;98205.84;;;15.69;47.91
13387;BME280;6763;48.524;9.044;2023-04-19T01:34:39;98205.06;;;15.67;47.94
13387;BME280;6763;48.524;9.044;2023-04-19T01:37:04;98203.34;;;15.66;48.01
13387;BME280;6763;48.524;9.044;2023-04-19T01:39:29;98198.22;;;15.63;47.89
13387;BME280;6763;48.524;9.044;2023-04-19T01:41:55;98196.41;;;15.65;47.81
13387;BME280;6763;48.524;9.044;2023-04-19T01:44:20;98196.41;;;15.65;47.91
13387;BME280;6763;48.524;9.044;2023-04-19T01:46:46;98196.38;;;15.66;48.04
13387;BME280;6763;48.524;9.044;2023-04-19T01:49:12;98199.78;;;15.68;47.72
13387;BME280;6763;48.524;9.044;2023-04-19T01:51:37;98188.44;;;15.69;47.78
13387;BME280;6763;48.524;9.044;2023-04-19T01:54:03;98190.09;;;15.72;47.71
13387;BME280;6763;48.524;9.044;2023-04-19T01:56:28;98181.41;;;15.71;47.78
13387;BME280;6763;48.524;9.044;2023-04-19T01:58:54;98187.50;;;15.72;47.68
13387;BME280;6763;48.524;9.044;2023-04-19T02:01:20;98183.16;;;15.71;47.56
13387;BME280;6763;48.524;9.044;2023-04-19T02:03:45;98180.56;;;15.71;47.77
13387;BME280;6763;48.524;9.044;2023-04-19T02:06:11;98178.00;;;15.69;47.81
13387;BME280;6763;48.524;9.044;2023-04-19T02:08:38;98179.75;;;15.69;47.80
13387;BME280;6763;48.524;9.044;2023-04-19T02:11:11;98178.84;;;15.70;47.74
13387;BME280;6763;48.524;9.044;2023-04-19T02:13:38;98169.34;;;15.67;47.62
13387;BME280;6763;48.524;9.044;2023-04-19T02:16:04;98173.78;;;15.65;47.74
13387;BME280;6763;48.524;9.044;2023-04-19T02:18:30;98167.69;;;15.65;47.66
13387;BME280;6763;48.524;9.044;2023-04-19T02:20:57;98173.78;;;15.65;47.63
13387;BME280;6763;48.524;9.044;2023-04-19T02:23:23;98166.00;;;15.64;47.87
13387;BME280;6763;48.524;9.044;2023-04-19T02:25:49;98159.94;;;15.63;47.82
13387;BME280;6763;48.524;9.044;2023-04-19T02:28:15;98156.56;;;15.60;47.86
13387;BME280;6763;48.524;9.044;2023-04-19T02:30:40;98153.09;;;15.59;48.06
13387;BME280;6763;48.524;9.044;2023-04-19T02:33:05;98160.13;;;15.57;47.91
13387;BME280;6763;48.524;9.044;2023-04-19T02:35:31;98159.25;;;15.57;47.77
13387;BME280;6763;48.524;9.044;2023-04-19T02:37:59;98152.38;;;15.54;47.88
13387;BME280;6763;48.524;9.044;2023-04-19T02:40:24;98147.16;;;15.54;47.90
13387;BME280;6763;48.524;9.044;2023-04-19T02:42:50;98155.00;;;15.54;47.95
13387;BME280;6763;48.524;9.044;2023-04-19T02:45:16;98147.22;;;15.52;47.85
13387;BME280;6763;48.524;9.044;2023-04-19T02:47:41;98142.97;;;15.50;48.00
13387;BME280;6763;48.524;9.044;2023-04-19T02:50:07;98149.94;;;15.49;47.90
13387;BME280;6763;48.524;9.044;2023-04-19T02:52:32;98142.16;;;15.48;47.83
13387;BME280;6763;48.524;9.044;2023-04-19T02:54:58;98143.13;;;15.44;48.07
13387;BME280;6763;48.524;9.044;2023-04-19T02:57:23;98141.53;;;15.40;48.31
13387;BME280;6763;48.524;9.044;2023-04-19T02:59:48;98146.84;;;15.37;48.35
13387;BME280;6763;48.524;9.044;2023-04-19T03:02:14;98146.16;;;15.30;48.42
13387;BME280;6763;48.524;9.044;2023-04-19T03:04:39;98149.97;;;15.20;48.48
13387;BME280;6763;48.524;9.044;2023-04-19T03:07:05;98152.81;;;15.13;48.54
13387;BME280;6763;48.524;9.044;2023-04-19T03:09:30;98139.22;;;15.03;49.13
13387;BME280;6763;48.524;9.044;2023-04-19T03:11:55;98150.66;;;14.99;49.12
13387;BME280;6763;48.524;9.044;2023-04-19T03:14:21;98150.72;;;14.96;49.37
13387;BME280;6763;48.524;9.044;2023-04-19T03:16:46;98142.16;;;14.93;49.34
13387;BME280;6763;48.524;9.044;2023-04-19T03:19:11;98146.56;;;14.90;49.61
13387;BME280;6763;48.524;9.044;2023-04-19T03:21:37;98139.59;;;14.91;49.35
13387;BME280;6763;48.524;9.044;2023-04-19T03:24:02;98141.34;;;14.90;49.39
13387;BME280;6763;48.524;9.044;2023-04-19T03:26:28;98143.94;;;14.90;49.56
13387;BME280;6763;48.524;9.044;2023-04-19T03:28:53;98145.69;;;14.90;49.56
13387;BME280;6763;48.524;9.044;2023-04-19T03:31:18;98144.81;;;14.91;49.53
13387;BME280;6763;48.524;9.044;2023-04-19T03:33:44;98139.59;;;14.91;49.45
13387;BME280;6763;48.524;9.044;2023-04-19T03:36:09;98148.16;;;14.95;49.31
13387;BME280;6763;48.524;9.044;2023-04-19T03:38:35;98143.00;;;14.93;49.53
13387;BME280;6763;48.524;9.044;2023-04-19T03:41:01;98137.72;;;14.95;49.65
13387;BME280;6763;48.524;9.044;2023-04-19T03:43:26;98135.97;;;14.95;49.55
13387;BME280;6763;48.524;9.044;2023-04-19T03:45:51;98132.50;;;14.96;49.71
13387;BME280;6763;48.524;9.044;2023-04-19T03:48:17;98137.63;;;14.99;49.76
13387;BME280;6763;48.524;9.044;2023-04-19T03:50:42;98132.34;;;15.01;49.59
13387;BME280;6763;48.524;9.044;2023-04-19T03:53:07;98129.69;;;15.02;49.65
13387;BME280;6763;48.524;9.044;2023-04-19T03:55:32;98134.84;;;15.04;49.64
13387;BME280;6763;48.524;9.044;2023-04-19T03:57:58;98127.91;;;15.04;49.63
13387;BME280;6763;48.524;9.044;2023-04-19T04:00:23;98128.63;;;15.08;49.41
13387;BME280;6763;48.524;9.044;2023-04-19T04:02:48;98125.16;;;15.07;49.61
13387;BME280;6763;48.524;9.044;2023-04-19T04:05:14;98120.88;;;15.06;49.29
13387;BME280;6763;48.524;9.044;2023-04-19T04:07:39;98117.41;;;15.06;49.56
13387;BME280;6763;48.524;9.044;2023-04-19T04:10:05;98133.06;;;15.06;49.51
13387;BME280;6763;48.524;9.044;2023-04-19T04:12:31;98122.63;;;15.06;49.71
13387;BME280;6763;48.524;9.044;2023-04-19T04:14:56;98134.84;;;15.04;49.56
13387;BME280;6763;48.524;9.044;2023-04-19T04:17:22;98125.31;;;15.03;49.27
13387;BME280;6763;48.524;9.044;2023-04-19T04:19:48;98123.63;;;15.02;49.54
13387;BME280;6763;48.524;9.044;2023-04-19T04:22:14;98128.00;;;15.01;49.57
13387;BME280;6763;48.524;9.044;2023-04-19T04:24:40;98123.66;;;15.00;49.69
13387;BME280;6763;48.524;9.044;2023-04-19T04:27:09;98123.72;;;14.99;49.69
13387;BME280;6763;48.524;9.044;2023-04-19T04:29:38;98122.00;;;14.98;49.50
13387;BME280;6763;48.524;9.044;2023-04-19T04:32:05;98121.13;;;14.99;49.56
13387;BME280;6763;48.524;9.044;2023-04-19T04:34:33;98120.31;;;14.97;49.78
13387;BME280;6763;48.524;9.044;2023-04-19T04:36:58;98129.88;;;14.96;49.71
13387;BME280;6763;48.524;9.044;2023-04-19T04:39:23;98126.34;;;14.97;49.76
13387;BME280;6763;48.524;9.044;2023-04-19T04:41:49;98131.53;;;14.99;49.50
13387;BME280;6763;48.524;9.044;2023-04-19T04:44:16;98134.88;;;15.02;49.54
13387;BME280;6763;48.524;9.044;2023-04-19T04:46:41;98122.69;;;15.04;49.80
13387;BME280;6763;48.524;9.044;2023-04-19T04:49:06;98124.34;;;15.07;49.51
13387;BME280;6763;48.524;9.044;2023-04-19T04:51:33;98129.50;;;15.08;49.49
13387;BME280;6763;48.524;9.044;2023-04-19T04:53:58;98124.28;;;15.08;49.47
13387;BME280;6763;48.524;9.044;2023-04-19T04:56:23;98132.97;;;15.09;49.34
13387;BME280;6763;48.524;9.044;2023-04-19T04:58:50;98131.16;;;15.11;49.43
13387;BME280;6763;48.524;9.044;2023-04-19T05:01:15;98129.41;;;15.11;49.49
13387;BME280;6763;48.524;9.044;2023-04-19T05:03:43;98131.94;;;15.13;49.34
13387;BME280;6763;48.524;9.044;2023-04-19T05:06:09;98137.13;;;15.14;49.36
13387;BME280;6763;48.524;9.044;2023-04-19T05:08:34;98139.59;;;15.19;49.57
13387;BME280;6763;48.524;9.044;2023-04-19T05:10:59;98136.91;;;15.22;49.09
13387;BME280;6763;48.524;9.044;2023-04-19T05:13:25;98137.59;;;15.27;49.09
13387;BME280;6763;48.524;9.044;2023-04-19T05:15:50;98138.34;;;15.30;48.90
13387;BME280;6763;48.524;9.044;2023-04-19T05:18:15;98144.31;;;15.34;49.04
13387;BME280;6763;48.524;9.044;2023-04-19T05:20:41;98144.16;;;15.38;49.05
13387;BME280;6763;48.524;9.044;2023-04-19T05:23:06;98144.88;;;15.43;48.66
13387;BME280;6763;48.524;9.044;2023-04-19T05:25:32;98141.31;;;15.47;48.48
13387;BME280;6763;48.524;9.044;2023-04-19T05:27:57;98139.47;;;15.51;48.36
13387;BME280;6763;48.524;9.044;2023-04-19T05:30:23;98141.16;;;15.52;48.47
13387;BME280;6763;48.524;9.044;2023-04-19T05:32:48;98141.94;;;15.54;48.25
13387;BME280;6763;48.524;9.044;2023-04-19T05:35:13;98142.81;;;15.55;48.25
13387;BME280;6763;48.524;9.044;2023-04-19T05:37:39;98140.28;;;15.51;48.22
13387;BME280;6763;48.524;9.044;2023-04-19T05:40:06;98150.84;;;15.48;47.86
13387;BME280;6763;48.524;9.044;2023-04-19T05:42:34;98143.06;;;15.47;48.31
13387;BME280;6763;48.524;9.044;2023-04-19T05:44:59;98150.84;;;15.48;48.41
13387;BME280;6763;48.524;9.044;2023-04-19T05:47:24;98148.94;;;15.54;48.11
13387;BME280;6763;48.524;9.044;2023-04-19T05:49:50;98146.91;;;15.62;48.15
13387;BME280;6763;48.524;9.044;2023-04-19T05:52:15;98148.44;;;15.69;47.93
13387;BME280;6763;48.524;9.044;2023-04-19T05:54:40;98153.44;;;15.75;47.39
13387;BME280;6763;48.524;9.044;2023-04-19T05:57:06;98147.22;;;15.79;47.28
13387;BME280;6763;48.524;9.044;2023-04-19T05:59:31;98149.69;;;15.83;47.51
13387;BME280;6763;48.524;9.044;2023-04-19T06:01:57;98152.94;;;15.90;47.08
13387;BME280;6763;48.524;9.044;2023-04-19T06:04:22;98151.84;;;15.95;47.05
13387;BME280;6763;48.524;9.044;2023-04-19T06:06:48;98156.19;;;15.96;46.81
13387;BME280;6763;48.524;9.044;2023-04-19T06:09:13;98161.31;;;15.99;46.96
13387;BME280;6763;48.524;9.044;2023-04-19T06:11:39;98160.44;;;15.99;46.81
13387;BME280;6763;48.524;9.044;2023-04-19T06:14:05;98152.50;;;16.02;46.53
13387;BME280;6763;48.524;9.044;2023-04-19T06:16:30;98165.47;;;16.05;46.48
13387;BME280;6763;48.524;9.044;2023-04-19T06:18:56;98163.56;;;16.10;46.39
13387;BME280;6763;48.524;9.044;2023-04-19T06:21:21;98158.16;;;16.14;46.27
13387;BME280;6763;48.524;9.044;2023-04-19T06:23:46;98157.84;;;16.24;45.94
13387;BME280;6763;48.524;9.044;2023-04-19T06:26:12;98165.47;;;16.30;46.01
13387;BME280;6763;48.524;9.044;2023-04-19T06:28:37;98165.28;;;16.34;46.02
13387;BME280;6763;48.524;9.044;2023-04-19T06:31:03;98166.94;;;16.37;45.22
13387;BME280;6763;48.524;9.044;2023-04-19T06:33:28;98163.69;;;16.30;45.47
13387;BME280;6763;48.524;9.044;2023-04-19T06:35:54;98154.03;;;16.32;45.24
13387;BME280;6763;48.524;9.044;2023-04-19T06:38:19;98166.72;;;16.43;45.31
13387;BME280;6763;48.524;9.044;2023-04-19T06:40:44;98166.94;;;16.61;44.91
13387;BME280;6763;48.524;9.044;2023-04-19T06:43:10;98156.69;;;16.80;44.44
13387;BME280;6763;48.524;9.044;2023-04-19T06:45:35;98160.00;;;16.84;44.29
13387;BME280;6763;48.524;9.044;2023-04-19T06:48:00;98154.38;;;16.94;44.57
13387;BME280;6763;48.524;9.044;2023-04-19T06:50:26;98154.72;;;17.08;44.09
13387;BME280;6763;48.524;9.044;2023-04-19T06:52:52;98155.94;;;17.21;43.88
13387;BME280;6763;48.524;9.044;2023-04-19T06:55:17;98153.56;;;17.37;43.37
13387;BME280;6763;48.524;9.044;2023-04-19T06:57:43;98151.31;;;17.50;43.47
13387;BME280;6763;48.524;9.044;2023-04-19T07:00:09;98159.53;;;17.62;43.25
13387;BME280;6763;48.524;9.044;2023-04-19T07:02:34;98159.78;;;17.78;43.07
13387;BME280;6763;48.524;9.044;2023-04-19T07:05:00;98150.56;;;17.89;42.78
13387;BME280;6763;48.524;9.044;2023-04-19T07:07:25;98151.81;;;18.01;42.28
13387;BME280;6763;48.524;9.044;2023-04-19T07:09:51;98153.31;;;18.07;42.00
13387;BME280;6763;48.524;9.044;2023-04-19T07:12:16;98152.91;;;17.95;41.83
13387;BME280;6763;48.524;9.044;2023-04-19T07:14:41;98149.84;;;17.86;41.75
13387;BME280;6763;48.524;9.044;2023-04-19T07:17:07;98145.69;;;17.80;42.00
13387;BME280;6763;48.524;9.044;2023-04-19T07:19:32;98149.06;;;17.84;42.03
13387;BME280;6763;48.524;9.044;2023-04-19T07:21:59;98148.13;;;17.85;42.01
13387;BME280;6763;48.524;9.044;2023-04-19T07:24:25;98154.41;;;17.81;41.77
13387;BME280;6763;48.524;9.044;2023-04-19T07:26:52;98154.47;;;17.79;42.06
13387;BME280;6763;48.524;9.044;2023-04-19T07:29:17;98157.16;;;17.78;42.09
13387;BME280;6763;48.524;9.044;2023-04-19T07:31:43;98156.38;;;17.76;41.84
13387;BME280;6763;48.524;9.044;2023-04-19T07:34:08;98156.38;;;17.76;41.93
13387;BME280;6763;48.524;9.044;2023-04-19T07:36:34;98160.56;;;17.80;41.99
13387;BME280;6763;48.524;9.044;2023-04-19T07:39:01;98150.75;;;17.85;41.83
13387;BME280;6763;48.524;9.044;2023-04-19T07:41:26;98140.13;;;17.88;41.83
13387;BME280;6763;48.524;9.044;2023-04-19T07:43:52;98149.59;;;17.92;41.50
13387;BME280;6763;48.524;9.044;2023-04-19T07:46:17;98151.22;;;17.94;41.56
13387;BME280;6763;48.524;9.044;2023-04-19T07:48:43;98148.59;;;17.94;41.40
13387;BME280;6763;48.524;9.044;2023-04-19T07:51:13;98146.81;;;17.95;41.26
13387;BME280;6763;48.524;9.044;2023-04-19T07:53:39;98138.94;;;17.95;41.31
13387;BME280;6763;48.524;9.044;2023-04-19T07:56:06;98147.50;;;18.00;40.98
13387;BME280;6763;48.524;9.044;2023-04-19T07:58:32;98136.75;;;18.06;41.23
13387;BME280;6763;48.524;9.044;2023-04-19T08:00:57;98137.06;;;18.19;40.79
13387;BME280;6763;48.524;9.044;2023-04-19T08:03:22;98126.75;;;18.34;40.53
13387;BME280;6763;48.524;9.044;2023-04-19T08:05:48;98128.81;;;18.48;40.30
13387;BME280;6763;48.524;9.044;2023-04-19T08:08:13;98127.25;;;18.63;39.83
13387;BME280;6763;48.524;9.044;2023-04-19T08:10:39;98128.09;;;18.63;39.34
13387;BME280;6763;48.524;9.044;2023-04-19T08:13:05;98129.56;;;18.70;39.07
13387;BME280;6763;48.524;9.044;2023-04-19T08:15:30;98128.69;;;18.70;38.94
13387;BME280;6763;48.524;9.044;2023-04-19T08:17:55;98125.09;;;18.72;38.77
13387;BME280;6763;48.524;9.044;2023-04-19T08:20:21;98120.63;;;18.74;38.64
13387;BME280;6763;48.524;9.044;2023-04-19T08:22:47;98122.09;;;18.80;38.64
13387;BME280;6763;48.524;9.044;2023-04-19T08:25:12;98110.91;;;18.95;38.35
13387;BME280;6763;48.524;9.044;2023-04-19T08:27:37;98118.00;;;19.11;38.08
13387;BME280;6763;48.524;9.044;2023-04-19T08:30:03;98117.13;;;19.30;37.88
13387;BME280;6763;48.524;9.044;2023-04-19T08:32:28;98117.66;;;19.55;37.57
13387;BME280;6763;48.524;9.044;2023-04-19T08:34:54;98111.84;;;19.83;37.27
13387;BME280;6763;48.524;9.044;2023-04-19T08:37:19;98121.91;;;20.09;36.79
13387;BME280;6763;48.524;9.044;2023-04-19T08:39:45;98119.97;;;20.29;36.56
13387;BME280;6763;48.524;9.044;2023-04-19T08:42:10;98118.50;;;20.41;36.19
13387;BME280;6763;48.524;9.044;2023-04-19T08:44:36;98116.97;;;20.53;36.18
13387;BME280;6763;48.524;9.044;2023-04-19T08:47:05;98113.34;;;20.55;35.81
13387;BME280;6763;48.524;9.044;2023-04-19T08:49:34;98118.75;;;20.52;35.87
13387;BME280;6763;48.524;9.044;2023-04-19T08:52:02;98119.09;;;20.46;35.73
13387;BME280;6763;48.524;9.044;2023-04-19T08:54:28;98111.81;;;20.51;35.85
13387;BME280;6763;48.524;9.044;2023-04-19T08:56:57;98109.44;;;20.62;35.73
13387;BME280;6763;48.524;9.044;2023-04-19T08:59:23;98118.19;;;20.78;35.43
13387;BME280;6763;48.524;9.044;2023-04-19T09:01:48;98119.66;;;20.99;35.13
13387;BME280;6763;48.524;9.044;2023-04-19T09:04:14;98112.50;;;21.19;34.65
13387;BME280;6763;48.524;9.044;2023-04-19T09:06:40;98105.16;;;21.39;34.59
13387;BME280;6763;48.524;9.044;2023-04-19T09:09:20;98104.97;;;21.58;34.15
13387;BME280;6763;48.524;9.044;2023-04-19T09:11:45;98100.19;;;21.64;33.75
13387;BME280;6763;48.524;9.044;2023-04-19T09:14:15;98099.59;;;21.59;33.80
13387;BME280;6763;48.524;9.044;2023-04-19T09:16:44;98085.50;;;21.60;33.97
13387;BME280;6763;48.524;9.044;2023-04-19T09:19:10;98088.97;;;21.61;33.83
13387;BME280;6763;48.524;9.044;2023-04-19T09:21:41;98089.06;;;21.59;33.94
13387;BME280;6763;48.524;9.044;2023-04-19T09:24:06;98083.13;;;21.56;33.86
13387;BME280;6763;48.524;9.044;2023-04-19T09:26:33;98085.09;;;21.52;33.91
13387;BME280;6763;48.524;9.044;2023-04-19T09:29:03;98082.34;;;21.54;34.05
13387;BME280;6763;48.524;9.044;2023-04-19T09:31:34;98081.50;;;21.53;33.97
13387;BME280;6763;48.524;9.044;2023-04-19T09:34:14;98082.34;;;21.54;33.87
13387;BME280;6763;48.524;9.044;2023-04-19T09:36:39;98079.16;;;21.49;33.90
13387;BME280;6763;48.524;9.044;2023-04-19T09:39:05;98081.63;;;21.36;33.52
13387;BME280;6763;48.524;9.044;2023-04-19T09:41:31;98074.09;;;21.15;34.02
13387;BME280;6763;48.524;9.044;2023-04-19T09:44:12;98072.03;;;20.88;33.92
13387;BME280;6763;48.524;9.044;2023-04-19T09:46:40;98073.63;;;20.60;33.96
13387;BME280;6763;48.524;9.044;2023-04-19T09:51:55;98066.47;;;20.13;34.84
13387;BME280;6763;48.524;9.044;2023-04-19T09:54:22;98066.31;;;20.16;35.05
13387;BME280;6763;48.524;9.044;2023-04-19T09:56:49;98058.66;;;20.29;34.75
13387;BME280;6763;48.524;9.044;2023-04-19T09:59:15;98063.50;;;20.36;34.62
13387;BME280;6763;48.524;9.044;2023-04-19T10:01:44;98050.56;;;20.65;34.40
13387;BME280;6763;48.524;9.044;2023-04-19T10:04:11;98045.50;;;21.09;33.69
13387;BME280;6763;48.524;9.044;2023-04-19T10:06:38;98042.66;;;21.27;32.89
13387;BME280;6763;48.524;9.044;2023-04-19T10:09:05;98047.13;;;21.11;32.85
13387;BME280;6763;48.524;9.044;2023-04-19T10:11:32;98044.66;;;21.08;33.08
13387;BME280;6763;48.524;9.044;2023-04-19T10:14:09;98031.66;;;21.35;32.81
13387;BME280;6763;48.524;9.044;2023-04-19T10:16:36;98028.63;;;21.42;32.55
13387;BME280;6763;48.524;9.044;2023-04-19T10:19:04;98022.97;;;21.48;32.58
13387;BME280;6763;48.524;9.044;2023-04-19T10:21:32;98023.84;;;21.93;32.42
13387;BME280;6763;48.524;9.044;2023-04-19T10:23:59;98025.56;;;22.50;31.48
13387;BME280;6763;48.524;9.044;2023-04-19T10:26:26;98022.53;;;22.56;30.34
13387;BME280;6763;48.524;9.044;2023-04-19T10:28:53;98022.06;;;22.50;30.85
13387;BME280;6763;48.524;9.044;2023-04-19T10:31:19;98014.22;;;22.76;30.47
13387;BME280;6763;48.524;9.044;2023-04-19T10:33:49;98014.22;;;22.76;29.47
13387;BME280;6763;48.524;9.044;2023-04-19T10:36:16;98014.69;;;22.55;29.48
13387;BME280;6763;48.524;9.044;2023-04-19T10:38:46;98010.03;;;22.46;29.71
13387;BME280;6763;48.524;9.044;2023-04-19T10:41:18;98010.94;;;22.73;29.81
13387;BME280;6763;48.524;9.044;2023-04-19T10:48:50;97992.88;;;23.97;28.39
13387;BME280;6763;48.524;9.044;2023-04-19T10:51:20;97993.13;;;24.20;28.47
13387;BME280;6763;48.524;9.044;2023-04-19T10:53:51;97986.88;;;24.08;27.87
13387;BME280;6763;48.524;9.044;2023-04-19T10:56:22;97983.91;;;23.87;28.14
13387;BME280;6763;48.524;9.044;2023-04-19T10:59:11;97976.69;;;23.89;28.61
13387;BME280;6763;48.524;9.044;2023-04-19T11:01:44;97973.13;;;24.16;28.35
13387;BME280;6763;48.524;9.044;2023-04-19T11:07:05;97966.94;;;24.77;27.76
13387;BME280;6763;48.524;9.044;2023-04-19T11:12:04;97963.16;;;24.68;28.16
13387;BME280;6763;48.524;9.044;2023-04-19T11:14:52;97955.56;;;24.63;28.08
13387;BME280;6763;48.524;9.044;2023-04-19T11:17:29;97951.97;;;24.52;28.06
13387;BME280;6763;48.524;9.044;2023-04-19T11:19:57;97946.09;;;24.48;28.20
13387;BME280;6763;48.524;9.044;2023-04-19T11:22:36;97945.63;;;24.54;27.89
13387;BME280;6763;48.524;9.044;2023-04-19T11:25:19;97946.69;;;24.52;27.73
13387;BME280;6763;48.524;9.044;2023-04-19T11:27:49;97935.72;;;24.45;27.89
13387;BME280;6763;48.524;9.044;2023-04-19T11:30:19;97937.13;;;24.26;28.28
13387;BME280;6763;48.524;9.044;2023-04-19T11:32:47;97936.72;;;24.06;28.47
13387;BME280;6763;48.524;9.044;2023-04-19T11:35:14;97931.03;;;23.75;28.30
13387;BME280;6763;48.524;9.044;2023-04-19T11:37:40;97929.84;;;23.41;28.54
13387;BME280;6763;48.524;9.044;2023-04-19T11:40:06;97933.38;;;23.15;28.85
13387;BME280;6763;48.524;9.044;2023-04-19T11:42:33;97925.59;;;22.87;28.97
13387;BME280;6763;48.524;9.044;2023-04-19T11:44:59;97929.84;;;22.48;29.37
13387;BME280;6763;48.524;9.044;2023-04-19T11:47:27;97930.03;;;22.31;29.84
13387;BME280;6763;48.524;9.044;2023-04-19T11:49:56;97926.22;;;22.22;29.95
13387;BME280;6763;48.524;9.044;2023-04-19T11:52:23;97925.91;;;22.27;30.14
13387;BME280;6763;48.524;9.044;2023-04-19T11:54:53;97918.25;;;22.37;29.96
13387;BME280;6763;48.524;9.044;2023-04-19T11:57:40;97909.97;;;22.43;29.85
13387;BME280;6763;48.524;9.044;2023-04-19T12:00:07;97914.56;;;22.53;29.96
13387;BME280;6763;48.524;9.044;2023-04-19T12:02:40;97915.50;;;22.52;29.63
13387;BME280;6763;48.524;9.044;2023-04-19T12:05:08;97909.72;;;22.19;29.51
13387;BME280;6763;48.524;9.044;2023-04-19T12:07:34;97915.78;;;21.79;29.85
13387;BME280;6763;48.524;9.044;2023-04-19T12:10:10;97918.19;;;21.39;30.53
13387;BME280;6763;48.524;9.044;2023-04-19T12:12:36;97918.38;;;21.07;31.15
13387;BME280;6763;48.524;9.044;2023-04-19T12:15:02;97913.50;;;20.85;31.52
13387;BME280;6763;48.524;9.044;2023-04-19T12:17:27;97913.34;;;20.72;31.77
13387;BME280;6763;48.524;9.044;2023-04-19T12:19:52;97916.78;;;20.43;32.24
13387;BME280;6763;48.524;9.044;2023-04-19T12:22:18;97920.72;;;20.19;32.81
13387;BME280;6763;48.524;9.044;2023-04-19T12:24:53;97920.13;;;19.98;33.08
13387;BME280;6763;48.524;9.044;2023-04-19T12:27:19;97921.50;;;19.72;33.68
13387;BME280;6763;48.524;9.044;2023-04-19T12:29:45;97924.38;;;19.68;34.03
13387;BME280;6763;48.524;9.044;2023-04-19T12:32:10;97922.63;;;19.68;33.92
13387;BME280;6763;48.524;9.044;2023-04-19T12:34:36;97921.34;;;19.75;33.99
13387;BME280;6763;48.524;9.044;2023-04-19T12:37:01;97911.44;;;19.80;33.96
13387;BME280;6763;48.524;9.044;2023-04-19T12:39:30;97917.81;;;19.76;34.18
13387;BME280;6763;48.524;9.044;2023-04-19T12:41:55;97912.56;;;19.76;34.22
13387;BME280;6763;48.524;9.044;2023-04-19T12:44:21;97916.78;;;19.79;34.33
13387;BME280;6763;48.524;9.044;2023-04-19T12:46:47;97910.31;;;19.69;34.59
13387;BME280;6763;48.524;9.044;2023-04-19T12:49:12;97913.84;;;19.52;35.04
13387;BME280;6763;48.524;9.044;2023-04-19T12:51:38;97915.81;;;19.30;35.59
13387;BME280;6763;48.524;9.044;2023-04-19T12:54:03;97909.69;;;19.14;35.99
13387;BME280;6763;48.524;9.044;2023-04-19T12:56:28;97917.41;;;19.00;36.18
13387;BME280;6763;48.524;9.044;2023-04-19T12:58:54;97913.06;;;18.99;36.67
13387;BME280;6763;48.524;9.044;2023-04-19T13:01:19;97922.56;;;19.01;36.56
13387;BME280;6763;48.524;9.044;2023-04-19T13:03:44;97904.19;;;18.84;37.24
13387;BME280;6763;48.524;9.044;2023-04-19T13:06:10;97917.50;;;18.63;37.60
13387;BME280;6763;48.524;9.044;2023-04-19T13:08:38;97925.38;;;18.44;38.43
13387;BME280;6763;48.524;9.044;2023-04-19T13:11:04;97921.78;;;18.28;38.63
13387;BME280;6763;48.524;9.044;2023-04-19T13:13:29;97923.34;;;18.13;38.83
13387;BME280;6763;48.524;9.044;2023-04-19T13:15:55;97924.78;;;18.02;39.53
13387;BME280;6763;48.524;9.044;2023-04-19T13:18:20;97927.09;;;17.89;39.90
13387;BME280;6763;48.524;9.044;2023-04-19T13:20:47;97917.16;;;17.77;40.30